createdAt,value
2022-08-23T00:00:45.002Z,5.18
2022-08-23T00:05:44.950Z,5.74
2022-08-23T00:10:44.953Z,5.72
2022-08-23T00:15:44.954Z,5.69
2022-08-23T00:20:44.959Z,6.53
2022-08-23T00:25:44.991Z,5.44
2022-08-23T00:30:44.964Z,5.25
2022-08-23T00:35:44.970Z,5.21
2022-08-23T00:40:44.968Z,5.54
2022-08-23T00:45:45.000Z,5.26
2022-08-23T00:50:44.971Z,5.3
2022-08-23T00:55:45.006Z,5.97
2022-08-23T01:00:44.979Z,5.42
2022-08-23T01:05:44.999Z,5.52
2022-08-23T01:10:44.976Z,5.73
2022-08-23T01:15:44.987Z,5.45
2022-08-23T01:20:44.996Z,5.47
2022-08-23T01:25:45.006Z,5.12
2022-08-23T01:30:44.990Z,5.13
2022-08-23T01:35:45.020Z,6.36
2022-08-23T01:40:45.002Z,5.59
2022-08-23T01:45:45.004Z,5.86
2022-08-23T01:50:44.993Z,5.33
2022-08-23T01:55:45.013Z,5.71
2022-08-23T02:00:45.043Z,5.18
2022-08-23T02:05:45.053Z,5.39
2022-08-23T02:10:45.021Z,6.1
2022-08-23T02:15:45.020Z,5.67
2022-08-23T02:20:45.046Z,5.06
2022-08-23T02:25:45.013Z,5.82
2022-08-23T02:30:45.057Z,6.65
2022-08-23T02:35:45.021Z,4.92
2022-08-23T02:40:45.031Z,4.95
2022-08-23T02:45:45.034Z,4.97
2022-08-23T02:50:45.042Z,4.92
2022-08-23T02:55:45.031Z,4.62
2022-08-23T03:00:45.082Z,4.63
2022-08-23T03:05:45.072Z,4.36
2022-08-23T03:10:45.070Z,4.57
2022-08-23T03:15:45.051Z,5.96
2022-08-23T03:20:45.048Z,5.54
2022-08-23T03:25:45.064Z,4.78
2022-08-23T03:30:45.060Z,4.19
2022-08-23T03:35:45.068Z,4.59
2022-08-23T03:40:45.111Z,4.38
2022-08-23T03:45:45.090Z,4.58
2022-08-23T03:50:45.091Z,4.45
2022-08-23T03:55:45.123Z,4.59
2022-08-23T04:00:45.080Z,4.38
2022-08-23T04:05:45.065Z,4.44
2022-08-23T04:10:45.118Z,4.38
2022-08-23T04:15:45.119Z,4.6
2022-08-23T04:20:45.084Z,4.49
2022-08-23T04:25:45.077Z,4.41
2022-08-23T04:30:45.121Z,4.12
2022-08-23T04:35:45.089Z,4.09
2022-08-23T04:40:45.145Z,3.74
2022-08-23T04:45:45.092Z,4.27
2022-08-23T04:50:45.092Z,4.21
2022-08-23T04:55:45.131Z,4.34
2022-08-23T05:00:48.230Z,4.32
2022-08-23T05:05:45.096Z,4.17
2022-08-23T05:10:45.103Z,5.02
2022-08-23T05:15:45.107Z,4.31
2022-08-23T05:20:45.110Z,4.91
2022-08-23T05:25:45.121Z,4.98
2022-08-23T05:30:47.883Z,4.65
2022-08-23T05:35:45.125Z,3.42
2022-08-23T05:40:45.125Z,2.83
2022-08-23T05:45:45.129Z,2.8
2022-08-23T05:50:45.124Z,3.87
2022-08-23T05:55:45.168Z,3.72
2022-08-23T06:00:45.191Z,2.81
2022-08-23T06:05:45.132Z,2.51
2022-08-23T06:10:45.146Z,2.76
2022-08-23T06:15:45.139Z,2.93
2022-08-23T06:20:45.235Z,2.68
2022-08-23T06:25:45.172Z,2.57
2022-08-23T06:30:45.243Z,2.91
2022-08-23T06:35:45.157Z,2.78
2022-08-23T06:40:45.163Z,2.68
2022-08-23T06:45:48.440Z,2.59
2022-08-23T06:50:47.772Z,2.95
2022-08-23T06:55:45.162Z,3.21
2022-08-23T07:00:45.232Z,2.79
2022-08-23T07:05:45.171Z,2.85
2022-08-23T07:10:45.174Z,3.08
2022-08-23T07:15:45.201Z,3.81
2022-08-23T07:20:45.185Z,3.48
2022-08-23T07:25:45.217Z,3.22
2022-08-23T07:30:45.498Z,3.05
2022-08-23T07:35:45.181Z,2.76
2022-08-23T07:40:45.188Z,2.74
2022-08-23T07:45:45.227Z,2.47
2022-08-23T07:50:49.473Z,2.49
2022-08-23T07:55:45.192Z,2.62
2022-08-23T08:00:45.215Z,3.04
2022-08-23T08:05:45.210Z,2.44
2022-08-23T08:10:45.213Z,2.33
2022-08-23T08:15:45.260Z,2.23
2022-08-23T08:20:45.254Z,2.59
2022-08-23T08:25:45.211Z,2.3
2022-08-23T08:30:45.222Z,2.25
2022-08-23T08:35:45.216Z,2.45
2022-08-23T08:40:45.232Z,2.74
2022-08-23T08:45:45.243Z,2.44
2022-08-23T08:50:45.247Z,2.18
2022-08-23T09:00:46.340Z,2.22
2022-08-23T09:05:45.303Z,2.43
2022-08-23T09:10:45.251Z,2.16
2022-08-23T09:15:45.256Z,2.19
2022-08-23T09:20:45.259Z,2.23
2022-08-23T09:25:45.248Z,2.37
2022-08-23T09:30:45.247Z,2.11
2022-08-23T09:35:45.259Z,3.3
2022-08-23T09:40:45.262Z,2.8
2022-08-23T09:45:45.273Z,1.92
2022-08-23T09:50:45.312Z,1.63
2022-08-23T09:55:45.269Z,1.4
2022-08-23T10:00:45.262Z,1.77
2022-08-23T10:05:45.275Z,2.16
2022-08-23T10:10:45.310Z,2.68
2022-08-23T10:15:45.329Z,2.56
2022-08-23T10:20:45.293Z,2.26
2022-08-23T10:25:45.281Z,1.5
2022-08-23T10:30:45.322Z,1.69
2022-08-23T10:35:45.303Z,1.56
2022-08-23T10:40:45.321Z,2.06
2022-08-23T10:45:45.306Z,1.52
2022-08-23T10:50:45.311Z,1.47
2022-08-23T10:55:45.299Z,2.34
2022-08-23T11:00:45.310Z,2.3
2022-08-23T11:05:45.318Z,2.16
2022-08-23T11:10:53.621Z,2.22
2022-08-23T11:15:45.447Z,2.69
2022-08-23T11:20:45.327Z,2.34
2022-08-23T11:25:45.358Z,2.37
2022-08-23T11:30:45.383Z,2.74
2022-08-23T11:35:45.353Z,3.18
2022-08-23T11:40:45.336Z,6.44
2022-08-23T11:45:45.329Z,3.24
2022-08-23T11:50:45.329Z,12.1
2022-08-23T11:55:45.357Z,3.49
2022-08-23T12:00:45.341Z,3.12
2022-08-23T12:05:45.351Z,3.4
2022-08-23T12:10:45.409Z,3.15
2022-08-23T12:15:45.411Z,2.44
2022-08-23T12:20:48.430Z,2.7
2022-08-23T12:25:45.381Z,3.02
2022-08-23T12:30:45.444Z,3.21
2022-08-23T12:35:45.390Z,3.75
2022-08-23T12:40:45.370Z,3.06
2022-08-23T12:45:45.368Z,2.64
2022-08-23T12:50:45.369Z,3.03
2022-08-23T12:55:45.363Z,2.06
2022-08-23T13:00:45.375Z,2.43
2022-08-23T13:05:45.872Z,2.07
2022-08-23T13:10:45.376Z,2.09
2022-08-23T13:15:45.469Z,2.41
2022-08-23T13:20:45.390Z,2.34
2022-08-23T13:25:45.392Z,2.82
2022-08-23T13:30:45.432Z,3.08
2022-08-23T13:35:45.614Z,3.33
2022-08-23T13:40:45.397Z,3.11
2022-08-23T13:45:45.457Z,3.62
2022-08-23T13:50:45.410Z,4.18
2022-08-23T13:55:45.424Z,4.2
2022-08-23T14:00:45.828Z,3.67
2022-08-23T14:05:45.418Z,4.21
2022-08-23T14:10:45.409Z,4.94
2022-08-23T14:16:32.316Z,4.99
2022-08-23T14:20:46.131Z,4.32
2022-08-23T14:25:45.773Z,4.99
2022-08-23T14:30:45.448Z,5.19
2022-08-23T14:35:45.440Z,4.75
2022-08-23T14:40:45.423Z,5.32
2022-08-23T14:45:45.481Z,4.9
2022-08-23T14:50:45.433Z,4.74
2022-08-23T14:55:45.448Z,3.61
2022-08-23T15:00:45.481Z,5.07
2022-08-23T15:05:45.443Z,4.49
2022-08-23T15:12:55.456Z,3.57
2022-08-23T15:15:45.480Z,3.28
2022-08-23T15:20:45.495Z,4.04
2022-08-23T15:25:45.452Z,3.63
2022-08-23T15:30:45.515Z,4.35
2022-08-23T15:35:45.469Z,3.72
2022-08-23T15:40:45.456Z,3.49
2022-08-23T15:45:45.579Z,3.36
2022-08-23T15:50:45.466Z,7.14
2022-08-23T15:55:45.528Z,4.08
2022-08-23T16:00:45.484Z,3.41
2022-08-23T16:05:45.504Z,3.44
2022-08-23T16:10:45.493Z,3.42
2022-08-23T16:15:45.492Z,3.04
2022-08-23T16:20:45.490Z,3.37
2022-08-23T16:25:45.486Z,4.78
2022-08-23T16:30:45.530Z,4.08
2022-08-23T16:35:45.508Z,3.56
2022-08-23T16:40:45.505Z,3.46
2022-08-23T16:45:45.583Z,3.75
2022-08-23T16:50:45.521Z,4.01
2022-08-23T16:55:45.504Z,3.74
2022-08-23T17:00:45.545Z,3.76
2022-08-23T17:05:45.522Z,4.03
2022-08-23T17:10:45.518Z,4.17
2022-08-23T17:15:45.536Z,5.09
2022-08-23T17:20:45.542Z,4.15
2022-08-23T17:25:45.525Z,4.24
2022-08-23T17:30:45.539Z,4.07
2022-08-23T17:35:45.568Z,4.58
2022-08-23T17:40:45.544Z,4.74
2022-08-23T17:45:45.579Z,5.03
2022-08-23T17:50:45.536Z,4.75
2022-08-23T17:55:45.544Z,6.34
2022-08-23T18:00:45.625Z,7.92
2022-08-23T18:05:45.559Z,6.2
2022-08-23T18:10:45.549Z,5.02
2022-08-23T18:15:45.571Z,4.83
2022-08-23T18:20:45.561Z,4.83
2022-08-23T18:25:45.559Z,4.57
2022-08-23T18:30:45.564Z,4.62
2022-08-23T18:35:45.595Z,4.45
2022-08-23T18:40:45.572Z,4.59
2022-08-23T18:45:45.618Z,4.42
2022-08-23T18:50:45.576Z,4.74
2022-08-23T18:55:45.581Z,4.25
2022-08-23T19:00:45.737Z,6.23
2022-08-23T19:10:45.589Z,6.23
2022-08-23T19:15:45.594Z,5.37
2022-08-23T19:20:45.594Z,5.25
2022-08-23T19:25:45.586Z,5.32
2022-08-23T19:30:45.596Z,5.17
2022-08-23T19:40:45.602Z,4.39
2022-08-23T19:45:45.708Z,5.02
2022-08-23T19:50:45.668Z,6
2022-08-23T19:55:45.613Z,5.19
2022-08-23T20:00:45.663Z,5.57
2022-08-23T20:05:45.629Z,6.08
2022-08-23T20:10:45.628Z,5.54
2022-08-23T20:15:45.618Z,5.88
2022-08-23T20:20:45.631Z,5.81
2022-08-23T20:25:45.669Z,6.42
2022-08-23T20:30:45.631Z,6.07
2022-08-23T20:35:45.641Z,5.12
2022-08-23T20:40:45.644Z,5.44
2022-08-23T20:45:47.661Z,5.7
2022-08-23T20:50:45.641Z,6.06
2022-08-23T20:55:45.648Z,5.6
2022-08-23T21:00:45.717Z,5.84
2022-08-23T21:05:45.675Z,6.33
2022-08-23T21:10:45.691Z,6.12
2022-08-23T21:15:45.697Z,6.23
2022-08-23T21:20:45.661Z,6.87
2022-08-23T21:25:45.661Z,6.24
2022-08-23T21:30:45.686Z,6.39
2022-08-23T21:35:45.660Z,6.37
2022-08-23T21:40:45.702Z,5.96
2022-08-23T21:45:45.707Z,6.06
2022-08-23T21:50:45.655Z,5.83
2022-08-23T21:55:45.651Z,5.93
2022-08-23T22:00:45.655Z,5.71
2022-08-23T22:05:45.695Z,6.11
2022-08-23T22:10:52.216Z,5.47
2022-08-23T22:15:45.676Z,5.39
2022-08-23T22:20:45.660Z,5.6
2022-08-23T22:25:45.666Z,5.89
2022-08-23T22:30:45.734Z,4.19
2022-08-23T22:35:48.776Z,4.98
2022-08-23T22:40:45.705Z,4.67
2022-08-23T22:45:45.767Z,4.01
2022-08-23T22:50:45.689Z,4.16
2022-08-23T22:55:45.679Z,4.3
2022-08-23T23:00:45.719Z,3.89
2022-08-23T23:05:45.693Z,3.89
2022-08-23T23:10:45.718Z,4.09
2022-08-23T23:15:45.701Z,5.39
2022-08-23T23:20:45.699Z,3.83
2022-08-23T23:25:45.765Z,3.71
2022-08-23T23:30:45.770Z,3.54
2022-08-23T23:35:45.723Z,3.86
2022-08-23T23:40:45.739Z,4.19
2022-08-23T23:45:45.800Z,3.86
2022-08-23T23:50:46.671Z,3.52
2022-08-23T23:55:45.744Z,4
